Terminal Aerodrome Forecast
Issued by NWS Charleston, SC

Current Version | Previous Version | Text Only | Print | Product List | Glossary On
Versions: 1 2 3 4 5 6 7 8 9 10 11 12 13 14 15 16 17 18 19 20 21 22 23 24 25
580
FTUS42 KCHS 270528
TAFCHS
TAF
KCHS 270528Z 2706/2806 VRB03KT P6SM VCSH SCT015 BKN035
     FM271200 03005KT P6SM SCT008 BKN150
     FM271800 10007KT P6SM BKN040 BKN250
     FM280000 VRB03KT P6SM FEW040 SCT250=

USA.gov is the U.S. government's official web portal to all federal, state and local government web resources and services.